Aérodrome :
LOGIN :

S'inscrire | Disclaimer

   EN    FR    IT 

 










Légende :    VFR   VFR Marginal   IFR   IFR Intensif   IFR Très Intensif
Visi : 
Plafond : 
>= 8 km
>= 3000ft
5 à 8 km
1000 à 3000 ft
1500m à 5 km
500 à 1000 ft
800 à 1500m
200 à 500 ft
< 800m
< 200 ft
Symboles :   Orages  Brouillard  Fortes neiges  Fortes précipitations  Vent > 20 kt
SIGMETs :   Divers  Orages  Givrage  Turbulence  Onde Orograph.  Cendres Volcan.






- Altitude de l'aérodrome : 1276 ft
- Code IATA : STR


EDDS - Stuttgart

DERNIER METAR :
  • 122020Z VRB01KT CAVOK 25/16 Q1015

METARs EXPIRÉS :
  • 121950Z VRB01KT CAVOK 25/17 Q1015 NOSIG
  • 121920Z VRB01KT CAVOK 26/16 Q1015 NOSIG
  • 121850Z VRB01KT CAVOK 28/15 Q1015 NOSIG
  • 121820Z 24003KT CAVOK 29/15 Q1015 NOSIG
  • 121750Z VRB02KT CAVOK 29/15 Q1015 NOSIG
  • 121720Z VRB01KT CAVOK 30/15 Q1014 NOSIG

TAF TAF EDDS
Valide du 12 à 18h jusqu'au 13 à 18h UTC


121700Z 1218/1318 VRB03KT CAVOK
PROB40
TEMPO 1304/1311 20015G25KT TSRA SCT045CB
BECMG 1308/1310 14006KT



MET'MAP, la Météo Aéronautique d'un coup d'oeil ! - Copyright ORBIFLY Décembre 2007 - Disclaimer

ORBIFLY MET'MAP TEAM :

Programmation & Développement : Alexandra Zaïnal
Sur une idée originale de : Baudouin d'Aumeries
Assistance à la programmation : Marc-Olivier Méhu
Soutien technique & logistique : Manuel Goepfert

Contact : metmap@orbifly.com




SOURCES & CREDITS :

   NOAA